Time;durP1;ratioP1;P1;durP2;ratioP2;P2;SDS_P1;SDS_P2;PMS_P1;PMS_P2;Temp;Humidity;BMP_temperature;BMP_pressure;BME280_temperature;BME280_humidity;BME280_pressure;Samples;Min_cycle;Max_cycle;Signal;HPM_P1;HPM_P2
2023/03/23 00:02:37;;;;;;;5.50;2.07;;;;;;;17.99;57.14;99667.59;5064342;28;20203;-63
2023/03/23 00:05:04;;;;;;;5.00;2.40;;;;;;;18.00;56.88;99657.81;5062186;28;20503;-63
2023/03/23 00:07:29;;;;;;;4.33;2.03;;;;;;;17.96;56.62;99654.09;5089555;28;20421;-63
2023/03/23 00:09:55;;;;;;;3.50;1.90;;;;;;;17.98;57.04;99654.53;5081407;28;20518;-63
2023/03/23 00:12:34;;;;;;;6.23;2.50;;;;;;;17.99;57.11;99672.47;5069696;28;20183;-63
2023/03/23 00:15:03;;;;;;;4.00;2.13;;;;;;;17.98;56.82;99677.38;5053435;28;20159;-63
2023/03/23 00:17:29;;;;;;;6.00;2.10;;;;;;;17.98;57.28;99671.66;5052730;28;20724;-63
2023/03/23 00:19:54;;;;;;;3.57;2.27;;;;;;;17.97;57.52;99663.47;5049778;28;20418;-63
2023/03/23 00:22:21;;;;;;;4.90;1.80;;;;;;;17.96;57.30;99664.69;5052355;28;20180;-63
2023/03/23 00:24:47;;;;;;;3.70;2.10;;;;;;;17.95;56.99;99661.00;5049688;28;20175;-63
2023/03/23 00:27:14;;;;;;;4.10;1.90;;;;;;;17.95;57.51;99648.75;5032382;28;20485;-63
2023/03/23 00:29:40;;;;;;;4.47;1.87;;;;;;;17.96;57.22;99650.44;5049768;28;20402;-63
2023/03/23 00:32:06;;;;;;;3.73;1.93;;;;;;;17.95;57.12;99651.63;5052220;28;20438;-63
2023/03/23 00:34:32;;;;;;;5.07;2.27;;;;;;;17.96;57.19;99653.28;5031896;28;20973;-62
2023/03/23 00:36:58;;;;;;;4.87;2.37;;;;;;;17.95;57.39;99646.72;5034554;28;20195;-63
2023/03/23 00:39:25;;;;;;;3.73;1.87;;;;;;;17.92;57.22;99641.81;5060207;28;20849;-63
2023/03/23 00:41:50;;;;;;;3.47;1.90;;;;;;;17.93;57.72;99637.75;5069630;28;20190;-62
2023/03/23 00:44:23;;;;;;;3.50;1.97;;;;;;;17.93;57.09;99639.78;5053836;28;20480;-63
2023/03/23 00:46:51;;;;;;;5.17;1.83;;;;;;;17.92;57.37;99638.97;5049490;28;20306;-62
2023/03/23 00:49:20;;;;;;;3.77;1.90;;;;;;;17.93;57.46;99628.34;5052048;28;20437;-63
2023/03/23 00:51:45;;;;;;;4.90;2.17;;;;;;;17.92;57.37;99630.41;5049506;28;20949;-63
2023/03/23 00:54:11;;;;;;;3.70;1.90;;;;;;;17.93;57.40;99629.19;5061614;28;20420;-63
2023/03/23 00:56:36;;;;;;;7.50;2.50;;;;;;;17.93;57.70;99625.50;5069116;28;20285;-63
2023/03/23 00:59:02;;;;;;;2.93;1.90;;;;;;;17.93;57.31;99626.34;5051412;28;20159;-63
2023/03/23 01:01:28;;;;;;;5.07;1.67;;;;;;;17.94;57.63;99630.81;5065884;28;20538;-63
2023/03/23 01:04:00;;;;;;;4.90;2.50;;;;;;;17.92;57.42;99629.56;5051553;28;20522;-63
2023/03/23 01:06:30;;;;;;;4.87;2.20;;;;;;;17.92;57.27;99621.84;5092657;28;20235;-63
2023/03/23 01:08:56;;;;;;;6.37;2.03;;;;;;;17.93;57.47;99619.78;5073486;28;20429;-63
2023/03/23 01:11:22;;;;;;;5.43;2.07;;;;;;;17.93;57.48;99609.19;5058170;28;20473;-63
2023/03/23 01:13:47;;;;;;;3.90;2.20;;;;;;;17.93;57.28;99602.66;5038752;28;20650;-63
2023/03/23 01:16:12;;;;;;;7.17;2.00;;;;;;;17.91;57.38;99603.03;5054782;28;20194;-63
2023/03/23 01:18:38;;;;;;;3.10;1.87;;;;;;;17.92;57.22;99596.13;5068089;28;21077;-63
2023/03/23 01:21:05;;;;;;;3.83;1.80;;;;;;;17.93;57.42;99594.09;5072243;28;20171;-63
2023/03/23 01:23:33;;;;;;;3.93;2.07;;;;;;;17.92;57.38;99587.56;5069134;28;20253;-63
2023/03/23 01:26:02;;;;;;;3.50;2.13;;;;;;;17.93;57.21;99591.22;5054677;28;21060;-63
2023/03/23 01:28:28;;;;;;;2.90;1.53;;;;;;;17.93;57.22;99589.22;5072844;28;20920;-63
2023/03/23 01:30:58;;;;;;;3.57;2.00;;;;;;;17.93;57.74;99582.66;5070515;28;20469;-63
2023/03/23 01:33:24;;;;;;;3.17;1.67;;;;;;;17.93;57.36;99583.50;5035876;28;20171;-62
2023/03/23 01:35:49;;;;;;;3.70;1.87;;;;;;;17.92;57.25;99584.72;5052867;28;20634;-62
2023/03/23 01:38:15;;;;;;;4.03;2.10;;;;;;;17.93;57.25;99574.09;5055140;28;20191;-63
2023/03/23 01:40:40;;;;;;;4.43;2.20;;;;;;;17.92;57.37;99570.44;5058147;28;20225;-63
2023/03/23 01:43:13;;;;;;;5.53;2.40;;;;;;;17.92;57.37;99564.72;5067016;28;20183;-62
2023/03/23 01:45:39;;;;;;;5.90;2.13;;;;;;;17.93;57.42;99559.81;5035213;28;20166;-63
2023/03/23 01:48:08;;;;;;;5.40;1.80;;;;;;;17.93;57.58;99554.94;5034690;28;20839;-63
2023/03/23 01:50:44;;;;;;;3.80;2.10;;;;;;;17.94;57.76;99556.56;5034895;28;20253;-63
2023/03/23 01:53:10;;;;;;;3.10;1.83;;;;;;;17.93;57.31;99554.94;5037724;28;20441;-63
2023/03/23 01:55:36;;;;;;;4.73;1.80;;;;;;;17.95;57.45;99549.63;5034645;28;20390;-63
2023/03/23 01:58:02;;;;;;;4.40;1.80;;;;;;;17.93;57.42;99546.38;5018340;28;20866;-63
2023/03/23 02:00:27;;;;;;;2.70;1.67;;;;;;;17.93;57.44;99537.81;5034833;28;20517;-63
2023/03/23 02:02:53;;;;;;;3.03;1.77;;;;;;;17.95;57.53;99526.78;5070836;28;20646;-63
2023/03/23 02:05:31;;;;;;;3.80;1.97;;;;;;;17.94;57.27;99528.00;5064886;28;20178;-63
2023/03/23 02:07:59;;;;;;;4.93;1.70;;;;;;;17.93;57.72;99534.13;5073618;28;20533;-63
2023/03/23 02:10:25;;;;;;;3.20;1.77;;;;;;;17.93;57.21;99520.66;5021898;28;20498;-63
2023/03/23 02:12:50;;;;;;;3.73;2.00;;;;;;;17.94;57.26;99513.75;5072292;28;20393;-63
2023/03/23 02:15:16;;;;;;;4.70;2.13;;;;;;;17.93;57.43;99520.66;5071972;28;20526;-63
2023/03/23 02:17:47;;;;;;;3.80;2.00;;;;;;;17.92;57.58;99521.91;5068472;28;20187;-62
2023/03/23 02:20:39;;;;;;;3.20;1.90;;;;;;;17.93;57.57;99531.25;5037642;28;20171;-63
2023/03/23 02:23:42;;;;;;;4.07;1.70;;;;;;;17.93;57.47;99534.13;5053848;28;20553;-63
2023/03/23 02:26:16;;;;;;;3.07;1.47;;;;;;;17.93;57.28;99532.09;5034022;28;20410;-62
2023/03/23 02:29:06;;;;;;;4.20;1.70;;;;;;;17.92;57.59;99533.31;5034224;28;20494;-63
2023/03/23 02:31:38;;;;;;;4.20;2.03;;;;;;;17.92;57.54;99523.91;5036374;28;20557;-63
2023/03/23 02:34:12;;;;;;;2.30;1.30;;;;;;;17.93;57.83;99516.97;5051602;28;20420;-62
2023/03/23 02:36:46;;;;;;;2.80;1.73;;;;;;;17.92;57.58;99513.31;5054545;28;20429;-62
2023/03/23 02:39:15;;;;;;;4.27;2.20;;;;;;;17.93;57.31;99517.81;5028298;28;20421;-63
2023/03/23 02:41:53;;;;;;;4.93;1.73;;;;;;;17.92;57.75;99518.19;5071894;28;20972;-63
2023/03/23 02:44:18;;;;;;;3.47;1.80;;;;;;;17.93;57.39;99514.13;5056214;28;20445;-63
2023/03/23 02:46:44;;;;;;;3.20;1.40;;;;;;;17.93;57.37;99517.81;5034525;28;20475;-62
2023/03/23 02:49:11;;;;;;;4.17;1.80;;;;;;;17.92;57.55;99519.03;5059772;28;20238;-63
2023/03/23 02:51:36;;;;;;;3.20;2.00;;;;;;;17.92;57.63;99516.19;5035766;28;20539;-63
2023/03/23 02:54:02;;;;;;;3.33;1.73;;;;;;;17.91;57.45;99511.66;5069226;28;20424;-62
2023/03/23 02:56:27;;;;;;;3.07;1.70;;;;;;;17.93;57.48;99502.69;5053408;28;20167;-63
2023/03/23 02:58:54;;;;;;;3.70;1.77;;;;;;;17.92;57.54;99507.63;5053579;28;20542;-62
2023/03/23 03:01:25;;;;;;;2.47;1.43;;;;;;;17.91;57.58;99511.66;5067689;28;20643;-62
2023/03/23 03:03:52;;;;;;;4.10;1.83;;;;;;;17.92;57.24;99506.78;5067673;28;20799;-62
2023/03/23 03:06:33;;;;;;;5.03;2.00;;;;;;;17.93;57.65;99511.28;5088602;28;20445;-62
2023/03/23 03:09:25;;;;;;;4.43;1.67;;;;;;;17.92;57.56;99501.91;5034004;28;20414;-62
2023/03/23 03:11:52;;;;;;;5.60;1.70;;;;;;;17.92;57.33;99507.63;5055783;28;20886;-62
2023/03/23 03:14:26;;;;;;;2.77;1.50;;;;;;;17.92;57.51;99506.78;5033892;28;20999;-62
2023/03/23 03:17:14;;;;;;;2.80;1.60;;;;;;;17.91;57.66;99505.94;5033610;28;20409;-62
2023/03/23 03:19:42;;;;;;;3.13;1.73;;;;;;;17.92;57.73;99501.06;5052609;28;20501;-62
2023/03/23 03:22:07;;;;;;;3.10;1.60;;;;;;;17.92;57.65;99510.47;5032164;28;20961;-62
2023/03/23 03:24:33;;;;;;;2.73;1.40;;;;;;;17.93;57.46;99506.38;5065956;28;20441;-62
2023/03/23 03:26:59;;;;;;;4.33;1.87;;;;;;;17.92;57.44;99504.75;5052077;28;20266;-62
2023/03/23 03:29:30;;;;;;;3.47;1.80;;;;;;;17.93;57.46;99506.38;5042888;28;20188;-62
2023/03/23 03:31:55;;;;;;;3.23;1.70;;;;;;;17.92;57.75;99504.75;5040597;28;20475;-62
2023/03/23 03:34:21;;;;;;;3.33;1.47;;;;;;;17.92;57.51;99509.63;5051929;28;20788;-63
2023/03/23 03:36:47;;;;;;;3.00;1.80;;;;;;;17.92;57.66;99501.91;5052926;28;20873;-63
2023/03/23 03:39:14;;;;;;;3.33;1.80;;;;;;;17.92;57.53;99510.47;5066998;28;20271;-63
2023/03/23 03:41:40;;;;;;;3.60;1.73;;;;;;;17.92;57.35;99509.63;5070425;28;20177;-63
2023/03/23 03:44:06;;;;;;;3.67;1.70;;;;;;;17.92;57.74;99513.31;5066671;28;20437;-63
2023/03/23 03:46:32;;;;;;;2.57;1.40;;;;;;;17.90;57.58;99507.16;5070370;28;20253;-63
2023/03/23 03:48:58;;;;;;;3.17;1.50;;;;;;;17.92;57.38;99507.63;5070377;28;20576;-63
2023/03/23 03:51:24;;;;;;;2.63;1.30;;;;;;;17.91;57.39;99511.66;5055956;28;20461;-63
2023/03/23 03:53:50;;;;;;;2.80;1.60;;;;;;;17.91;57.40;99503.09;5050315;28;20422;-63
2023/03/23 03:56:15;;;;;;;3.67;1.77;;;;;;;17.91;57.36;99513.72;5050487;28;20481;-63
2023/03/23 03:58:42;;;;;;;2.73;1.43;;;;;;;17.92;57.59;99507.63;5052285;28;20187;-63
2023/03/23 04:01:09;;;;;;;3.50;1.83;;;;;;;17.92;57.62;99507.63;5051804;28;20191;-63
2023/03/23 04:03:35;;;;;;;3.00;1.50;;;;;;;17.92;57.49;99513.31;5059987;28;20500;-63
2023/03/23 04:06:01;;;;;;;2.30;1.50;;;;;;;17.93;57.48;99517.81;5073844;28;20556;-63
2023/03/23 04:08:26;;;;;;;2.57;1.63;;;;;;;17.94;57.55;99522.31;5052618;28;20678;-63
2023/03/23 04:10:53;;;;;;;2.77;1.40;;;;;;;17.93;57.68;99522.69;5050008;28;20200;-63
2023/03/23 04:13:19;;;;;;;3.57;1.87;;;;;;;17.92;57.59;99526.78;5049771;28;20160;-63
2023/03/23 04:15:45;;;;;;;2.83;1.30;;;;;;;17.92;57.38;99524.75;5050003;28;21062;-63
2023/03/23 04:18:11;;;;;;;4.43;1.90;;;;;;;17.92;57.55;99530.47;5063397;28;20199;-63
2023/03/23 04:20:37;;;;;;;2.70;1.53;;;;;;;17.92;57.38;99527.59;5069798;28;20179;-63
2023/03/23 04:23:02;;;;;;;2.60;1.33;;;;;;;17.92;57.33;99530.47;5069963;28;20788;-63
2023/03/23 04:25:28;;;;;;;3.37;1.50;;;;;;;17.92;57.58;99532.47;5068803;28;20579;-63
2023/03/23 04:27:53;;;;;;;3.03;1.40;;;;;;;17.93;57.57;99528.41;5066757;28;20275;-63
2023/03/23 04:30:24;;;;;;;3.00;1.60;;;;;;;17.93;57.57;99540.66;5069754;28;20194;-63
2023/03/23 04:32:50;;;;;;;3.50;1.80;;;;;;;17.93;57.44;99540.66;5057899;28;20191;-63
2023/03/23 04:35:16;;;;;;;4.00;1.63;;;;;;;17.92;57.51;99538.19;5049991;28;20969;-63
2023/03/23 04:37:42;;;;;;;3.33;1.93;;;;;;;17.91;57.26;99530.84;5049553;28;20180;-63
2023/03/23 04:40:12;;;;;;;3.33;1.67;;;;;;;17.92;57.43;99524.75;5048752;28;20399;-63
2023/03/23 04:42:37;;;;;;;2.53;1.53;;;;;;;17.92;57.69;99527.59;5037115;28;20436;-63
2023/03/23 04:45:05;;;;;;;2.03;1.13;;;;;;;17.92;57.54;99539.03;5069177;28;20441;-63
2023/03/23 04:47:32;;;;;;;3.23;1.70;;;;;;;17.91;57.39;99540.22;5066941;28;20230;-63
2023/03/23 04:49:57;;;;;;;4.13;1.50;;;;;;;17.91;57.54;99545.94;5057102;28;20429;-62
2023/03/23 04:52:24;;;;;;;3.43;1.43;;;;;;;17.91;57.39;99543.06;5069627;28;20478;-63
2023/03/23 04:54:50;;;;;;;3.63;2.00;;;;;;;17.92;57.18;99546.75;5057340;28;20184;-63
2023/03/23 04:57:16;;;;;;;4.03;1.70;;;;;;;17.91;57.42;99547.97;5049387;28;20429;-63
2023/03/23 04:59:43;;;;;;;2.50;1.50;;;;;;;17.91;57.67;99548.78;5050432;28;20187;-63
2023/03/23 05:02:09;;;;;;;5.50;1.90;;;;;;;17.90;57.74;99558.56;5068304;28;20220;-63
2023/03/23 05:04:34;;;;;;;2.63;1.40;;;;;;;17.91;57.58;99554.50;5072846;28;20420;-63
2023/03/23 05:07:00;;;;;;;2.43;1.20;;;;;;;17.92;57.55;99555.31;5058649;28;20480;-63
2023/03/23 05:09:25;;;;;;;2.67;1.70;;;;;;;17.90;57.38;99550.00;5048266;28;20218;-64
2023/03/23 05:11:51;;;;;;;3.00;1.73;;;;;;;17.91;57.53;99554.50;5016185;28;20356;-62
2023/03/23 05:14:16;;;;;;;2.97;1.57;;;;;;;17.92;57.55;99550.44;5053273;28;20185;-64
2023/03/23 05:16:42;;;;;;;2.10;1.20;;;;;;;17.92;57.32;99555.31;5050845;28;20167;-64
2023/03/23 05:19:07;;;;;;;1.90;1.10;;;;;;;17.92;57.65;99558.19;5067385;28;20549;-63
2023/03/23 05:21:34;;;;;;;2.77;1.50;;;;;;;17.92;57.67;99553.31;5049901;28;20540;-63
2023/03/23 05:24:00;;;;;;;2.70;1.50;;;;;;;17.93;57.79;99556.97;5049002;28;20191;-64
2023/03/23 05:26:28;;;;;;;2.90;1.53;;;;;;;17.92;57.85;99569.59;5051872;28;20442;-63
2023/03/23 05:28:55;;;;;;;2.63;1.57;;;;;;;17.92;57.76;99564.72;5031609;28;20440;-63
2023/03/23 05:31:21;;;;;;;3.20;1.57;;;;;;;17.92;57.50;99569.59;5060672;28;20476;-64
2023/03/23 05:33:46;;;;;;;2.47;1.60;;;;;;;17.91;57.45;99582.25;5068105;28;20417;-63
2023/03/23 05:36:13;;;;;;;3.23;1.47;;;;;;;17.91;57.53;99580.19;5068066;28;20186;-63
2023/03/23 05:38:47;;;;;;;2.87;1.60;;;;;;;17.91;57.76;99574.47;5068206;28;20581;-63
2023/03/23 05:41:13;;;;;;;2.00;1.20;;;;;;;17.92;57.33;99587.56;5050870;28;20590;-63
2023/03/23 05:43:39;;;;;;;2.80;1.47;;;;;;;17.92;57.47;99581.84;5030976;28;20885;-63
2023/03/23 05:46:04;;;;;;;2.50;1.40;;;;;;;17.91;57.69;99582.25;5029988;28;20452;-63
2023/03/23 05:48:30;;;;;;;4.60;1.70;;;;;;;17.90;57.65;99581.41;5051129;28;20183;-63
2023/03/23 05:50:56;;;;;;;4.50;1.67;;;;;;;17.92;57.49;99590.44;5065496;28;20203;-63
2023/03/23 05:53:23;;;;;;;3.20;1.40;;;;;;;17.92;57.58;99589.59;5034323;28;20176;-64
2023/03/23 05:55:48;;;;;;;3.33;1.60;;;;;;;17.92;57.90;99592.44;5052540;28;20864;-63
2023/03/23 05:58:14;;;;;;;3.20;1.67;;;;;;;17.92;57.83;99583.88;5052418;28;20460;-63
2023/03/23 06:00:39;;;;;;;4.07;1.63;;;;;;;17.91;57.52;99585.09;5069433;28;20183;-63
2023/03/23 06:03:05;;;;;;;2.70;1.40;;;;;;;17.93;57.46;99588.38;5070333;28;20183;-64
2023/03/23 06:05:31;;;;;;;2.70;1.70;;;;;;;17.92;57.62;99593.28;5066781;28;20202;-63
2023/03/23 06:07:56;;;;;;;2.90;1.23;;;;;;;17.91;57.74;99588.75;5063988;28;20530;-64
2023/03/23 06:10:23;;;;;;;2.30;1.40;;;;;;;17.93;57.52;99594.09;5052444;28;20203;-63
2023/03/23 06:12:50;;;;;;;2.23;1.20;;;;;;;17.94;57.13;99599.41;5054678;28;20194;-63
2023/03/23 06:15:15;;;;;;;3.33;1.50;;;;;;;17.93;57.55;99599.78;5052332;28;20426;-63
2023/03/23 06:17:41;;;;;;;2.70;1.43;;;;;;;17.93;57.33;99617.75;5064932;28;20443;-63
2023/03/23 06:20:09;;;;;;;3.00;1.47;;;;;;;17.95;57.52;99629.59;5054741;28;20297;-63
2023/03/23 06:22:38;;;;;;;3.00;1.60;;;;;;;17.95;57.54;99629.59;5068514;28;20437;-64
2023/03/23 06:25:05;;;;;;;3.90;1.47;;;;;;;17.94;57.61;99630.81;5072725;28;20504;-64
2023/03/23 06:27:30;;;;;;;2.20;1.30;;;;;;;17.94;57.51;99630.81;5070722;28;20460;-64
2023/03/23 06:29:56;;;;;;;2.90;1.40;;;;;;;17.93;57.59;99639.78;5037335;28;20438;-63
2023/03/23 06:32:22;;;;;;;2.47;1.40;;;;;;;17.94;57.83;99647.97;5066265;28;20653;-64
2023/03/23 06:34:47;;;;;;;2.20;1.30;;;;;;;17.95;57.67;99652.44;5072284;28;20164;-64
2023/03/23 06:37:13;;;;;;;3.33;1.30;;;;;;;17.94;57.65;99659.38;5057663;28;20457;-64
2023/03/23 06:39:38;;;;;;;3.30;1.60;;;;;;;17.94;57.54;99662.22;5052316;28;20172;-63
2023/03/23 06:42:05;;;;;;;2.63;1.60;;;;;;;17.93;57.51;99663.44;5061220;28;20241;-64
2023/03/23 06:44:30;;;;;;;2.80;1.50;;;;;;;17.93;57.50;99669.16;5071535;28;20250;-64
2023/03/23 06:46:56;;;;;;;2.60;1.70;;;;;;;17.93;57.56;99665.47;5071297;28;20585;-64
2023/03/23 06:49:22;;;;;;;2.93;1.57;;;;;;;17.93;57.67;99669.16;5070558;28;20171;-64
2023/03/23 06:51:48;;;;;;;2.73;1.47;;;;;;;17.94;57.42;99665.09;5061294;28;20302;-64
2023/03/23 06:54:13;;;;;;;2.47;1.37;;;;;;;17.93;57.36;99680.59;5051332;28;21242;-64
2023/03/23 06:56:39;;;;;;;3.33;1.20;;;;;;;17.92;57.83;99684.66;5067649;28;20677;-64
2023/03/23 06:59:05;;;;;;;3.43;1.40;;;;;;;17.93;57.50;99686.31;5051524;28;20267;-64
2023/03/23 07:01:30;;;;;;;2.40;1.30;;;;;;;17.95;57.54;99694.44;5048196;28;20187;-64
2023/03/23 07:03:56;;;;;;;2.53;1.57;;;;;;;17.93;57.51;99683.44;5057421;28;20195;-64
2023/03/23 07:06:21;;;;;;;2.20;1.23;;;;;;;17.94;58.05;99690.78;5090217;28;20202;-64
2023/03/23 07:08:47;;;;;;;2.90;1.50;;;;;;;17.93;57.54;99692.00;5082047;28;20695;-64
2023/03/23 07:11:12;;;;;;;2.20;1.10;;;;;;;17.94;57.64;99687.94;5071041;28;20183;-64
2023/03/23 07:13:38;;;;;;;2.27;1.30;;;;;;;17.93;57.45;99679.75;5071110;28;20160;-64
2023/03/23 07:16:07;;;;;;;2.30;1.13;;;;;;;17.94;57.50;99682.22;5051840;28;20191;-64
2023/03/23 07:18:33;;;;;;;2.67;1.40;;;;;;;17.93;57.44;99674.88;5062448;28;20202;-64
2023/03/23 07:20:58;;;;;;;2.60;1.60;;;;;;;17.93;57.75;99669.16;5065393;28;20768;-63
2023/03/23 07:23:24;;;;;;;2.30;1.40;;;;;;;17.94;57.66;99679.38;5070933;28;20175;-63
2023/03/23 07:25:49;;;;;;;2.70;1.40;;;;;;;17.94;57.45;99676.50;5070785;28;20186;-63
2023/03/23 07:28:15;;;;;;;2.73;1.70;;;;;;;17.95;57.70;99688.75;5049189;28;20232;-63
2023/03/23 07:30:41;;;;;;;2.53;1.57;;;;;;;17.93;57.67;99680.59;5065503;28;20203;-63
2023/03/23 07:33:07;;;;;;;2.73;1.20;;;;;;;17.95;57.80;99681.00;5070136;28;20434;-63
2023/03/23 07:35:32;;;;;;;3.20;1.83;;;;;;;17.96;57.62;99681.84;5056152;28;20163;-63
2023/03/23 07:37:58;;;;;;;2.30;1.40;;;;;;;17.94;57.70;99687.94;5059634;28;20842;-64
2023/03/23 07:40:23;;;;;;;2.50;1.30;;;;;;;17.93;57.41;99694.88;5072292;28;20173;-63
2023/03/23 07:42:56;;;;;;;2.30;1.40;;;;;;;17.93;57.74;99692.00;5072041;28;20174;-63
2023/03/23 07:45:22;;;;;;;2.57;1.77;;;;;;;17.95;57.58;99695.28;5069475;28;20650;-63
2023/03/23 07:47:48;;;;;;;2.50;1.30;;;;;;;17.95;57.52;99706.72;5053681;28;20500;-63
2023/03/23 07:50:13;;;;;;;2.63;1.30;;;;;;;17.94;57.51;99696.50;5051898;28;20286;-63
2023/03/23 07:52:39;;;;;;;2.00;1.20;;;;;;;17.95;57.62;99701.00;5061800;28;20198;-63
2023/03/23 07:55:05;;;;;;;2.53;1.57;;;;;;;17.96;57.37;99714.06;5073638;28;20163;-63
2023/03/23 07:57:32;;;;;;;2.40;1.13;;;;;;;17.95;57.82;99717.28;5053985;28;20274;-63
2023/03/23 07:59:57;;;;;;;2.47;1.20;;;;;;;17.95;57.31;99711.59;5070435;28;20530;-63
2023/03/23 08:02:23;;;;;;;2.87;1.70;;;;;;;17.95;57.41;99723.00;5066959;28;20444;-63
2023/03/23 08:04:49;;;;;;;2.17;1.17;;;;;;;17.93;57.66;99712.00;5077738;28;20247;-63
2023/03/23 08:07:16;;;;;;;2.47;1.50;;;;;;;17.96;57.54;99713.25;5055677;28;20485;-63
2023/03/23 08:09:41;;;;;;;2.00;1.30;;;;;;;17.96;57.89;99714.06;5050926;28;20174;-63
2023/03/23 08:12:07;;;;;;;3.30;1.43;;;;;;;17.96;57.34;99719.78;5036032;28;20485;-63
2023/03/23 08:14:33;;;;;;;3.00;1.20;;;;;;;17.98;57.40;99710.81;5054248;28;20701;-64
2023/03/23 08:16:58;;;;;;;2.50;1.40;;;;;;;17.98;57.42;99717.38;5034773;28;20630;-64
2023/03/23 08:19:24;;;;;;;3.10;1.50;;;;;;;17.98;57.45;99723.06;5056551;28;20214;-64
2023/03/23 08:21:49;;;;;;;2.83;1.50;;;;;;;18.00;57.52;99714.94;5055126;28;20179;-63
2023/03/23 08:24:15;;;;;;;4.93;1.57;;;;;;;17.99;57.26;99719.00;5053712;28;20547;-63
2023/03/23 08:26:41;;;;;;;2.60;1.33;;;;;;;18.01;57.16;99722.28;5047947;28;20245;-63
2023/03/23 08:29:06;;;;;;;5.20;1.90;;;;;;;18.00;57.46;99726.34;5052039;28;20267;-63
2023/03/23 08:31:34;;;;;;;2.37;1.13;;;;;;;18.02;57.17;99728.81;5055827;28;20212;-63
2023/03/23 08:34:00;;;;;;;3.10;1.43;;;;;;;18.01;57.70;99727.97;5052894;28;20199;-62
2023/03/23 08:36:26;;;;;;;2.17;1.17;;;;;;;18.03;57.11;99745.56;5053413;28;20564;-63
2023/03/23 08:38:52;;;;;;;2.90;1.53;;;;;;;18.01;57.56;99750.03;5035675;28;20513;-63
2023/03/23 08:41:18;;;;;;;2.73;1.67;;;;;;;18.02;57.46;99758.19;5051826;28;20160;-63
2023/03/23 08:43:43;;;;;;;2.47;1.43;;;;;;;18.00;57.19;99749.19;5051510;28;20406;-63
2023/03/23 08:46:10;;;;;;;2.20;1.13;;;;;;;18.00;57.70;99772.03;5056548;28;20183;-63
2023/03/23 08:48:36;;;;;;;3.00;1.30;;;;;;;18.01;57.29;99767.97;5051777;28;20226;-63
2023/03/23 08:51:03;;;;;;;2.10;1.30;;;;;;;18.00;57.45;99777.75;5036276;28;20541;-63
2023/03/23 08:53:31;;;;;;;2.70;1.33;;;;;;;17.99;57.62;99784.69;5063153;28;20409;-63
2023/03/23 08:56:05;;;;;;;2.10;1.10;;;;;;;17.99;57.55;99798.97;5066775;28;20449;-63
2023/03/23 08:58:31;;;;;;;2.67;0.93;;;;;;;17.99;57.47;99790.41;5075074;28;20464;-63
2023/03/23 09:00:56;;;;;;;1.93;1.10;;;;;;;17.99;57.57;99793.25;5071963;28;20798;-63
2023/03/23 09:03:23;;;;;;;2.40;1.20;;;;;;;17.99;57.60;99793.25;5072940;28;20183;-63
2023/03/23 09:05:48;;;;;;;2.30;1.33;;;;;;;17.99;57.71;99798.97;5065454;28;20681;-63
2023/03/23 09:08:14;;;;;;;2.50;1.50;;;;;;;17.99;57.84;99792.41;5035183;28;20411;-64
2023/03/23 09:10:39;;;;;;;2.37;1.40;;;;;;;17.99;57.39;99792.41;5019932;28;20183;-63
2023/03/23 09:13:06;;;;;;;2.63;1.20;;;;;;;17.99;57.68;99790.41;5060287;28;20237;-63
2023/03/23 09:15:31;;;;;;;2.40;1.17;;;;;;;17.99;57.80;99796.13;5056573;28;20175;-63
2023/03/23 09:17:57;;;;;;;2.07;1.30;;;;;;;18.00;57.67;99786.31;5048195;28;20444;-63
2023/03/23 09:20:24;;;;;;;3.80;1.80;;;;;;;18.01;57.48;99778.59;5067300;28;20175;-63
2023/03/23 09:22:51;;;;;;;2.00;1.23;;;;;;;18.00;57.68;99789.19;5074494;28;20159;-63
2023/03/23 09:25:21;;;;;;;2.70;1.30;;;;;;;17.98;57.65;99791.63;5074163;28;20757;-63
2023/03/23 09:27:52;;;;;;;2.87;1.33;;;;;;;17.99;57.54;99798.97;5062900;28;20440;-63
2023/03/23 09:30:19;;;;;;;2.80;1.40;;;;;;;17.99;57.98;99793.25;5072405;28;20437;-62
2023/03/23 09:32:44;;;;;;;2.20;1.37;;;;;;;18.01;57.41;99807.16;5077763;28;20916;-62
2023/03/23 09:35:11;;;;;;;2.63;1.20;;;;;;;18.00;57.62;99800.59;5063956;28;20414;-63
2023/03/23 09:37:40;;;;;;;1.77;1.10;;;;;;;17.99;57.48;99798.97;5070502;28;20539;-63
2023/03/23 09:40:10;;;;;;;2.20;1.30;;;;;;;17.99;57.22;99789.56;5079665;28;20409;-63
2023/03/23 09:43:14;;;;;;;2.10;1.20;;;;;;;18.01;57.35;99796.53;5061983;28;20435;-64
2023/03/23 09:45:55;;;;;;;1.93;0.93;;;;;;;18.00;57.53;99805.47;5063665;28;20442;-63
2023/03/23 09:48:21;;;;;;;1.90;1.00;;;;;;;18.00;57.56;99806.31;5058115;28;20787;-63
2023/03/23 09:50:48;;;;;;;2.20;1.17;;;;;;;17.99;57.65;99796.13;5062909;28;20470;-63
2023/03/23 09:53:24;;;;;;;2.73;1.30;;;;;;;18.00;57.53;99805.47;5061323;28;20179;-63
2023/03/23 09:55:50;;;;;;;1.90;1.20;;;;;;;17.99;57.55;99809.56;5068024;28;20415;-63
2023/03/23 09:58:24;;;;;;;2.33;1.17;;;;;;;18.00;57.46;99817.75;5070869;28;20442;-63
2023/03/23 10:01:02;;;;;;;2.97;1.10;;;;;;;18.01;57.32;99810.00;5045280;28;20167;-63
2023/03/23 10:03:31;;;;;;;1.80;1.00;;;;;;;18.01;57.38;99810.00;5048138;28;20924;-63
2023/03/23 10:05:57;;;;;;;2.93;1.33;;;;;;;18.01;57.58;99802.25;5073210;28;20499;-63
2023/03/23 10:08:30;;;;;;;3.10;1.40;;;;;;;18.02;57.17;99803.88;5098421;28;20409;-63
2023/03/23 10:11:17;;;;;;;2.03;1.17;;;;;;;18.02;57.26;99817.38;5079207;28;20590;-64
2023/03/23 10:13:48;;;;;;;2.03;1.20;;;;;;;18.01;57.39;99815.72;5061629;28;20429;-63
2023/03/23 10:16:18;;;;;;;1.87;1.10;;;;;;;18.02;57.27;99820.22;5045892;28;21051;-63
2023/03/23 10:18:47;;;;;;;2.33;1.00;;;;;;;18.02;57.55;99809.59;5046198;28;20418;-63
2023/03/23 10:21:16;;;;;;;1.80;1.00;;;;;;;18.03;57.57;99819.00;5060644;28;20423;-63
2023/03/23 10:23:54;;;;;;;2.40;1.37;;;;;;;18.01;57.25;99816.53;5042909;28;20433;-63
2023/03/23 10:26:32;;;;;;;2.37;1.20;;;;;;;18.03;57.10;99816.97;5059882;28;20468;-63
2023/03/23 10:29:02;;;;;;;1.97;1.30;;;;;;;18.00;57.25;99812.03;5041797;28;20897;-63
2023/03/23 10:31:34;;;;;;;2.27;1.20;;;;;;;18.02;57.07;99814.50;5062981;28;20560;-63
2023/03/23 10:34:07;;;;;;;2.37;1.30;;;;;;;18.02;57.37;99808.78;5060431;28;20840;-63
2023/03/23 10:37:04;;;;;;;2.87;1.50;;;;;;;18.03;57.29;99804.72;5054496;28;20434;-63
2023/03/23 10:39:32;;;;;;;2.37;1.20;;;;;;;18.04;57.39;99807.19;5040649;28;20418;-64
2023/03/23 10:42:06;;;;;;;1.90;1.20;;;;;;;18.04;57.44;99814.94;5028519;28;20438;-63
2023/03/23 10:44:33;;;;;;;1.73;0.90;;;;;;;18.02;57.53;99818.16;5064491;28;20794;-63
2023/03/23 10:46:58;;;;;;;2.47;1.57;;;;;;;18.03;57.29;99811.25;5051921;28;20466;-64
2023/03/23 10:49:30;;;;;;;2.90;1.30;;;;;;;18.03;57.26;99811.25;5064066;28;20445;-63
2023/03/23 10:52:26;;;;;;;2.53;1.00;;;;;;;18.03;57.40;99819.84;5034086;28;20289;-64
2023/03/23 10:54:55;;;;;;;2.60;1.10;;;;;;;18.03;57.42;99819.84;5059480;28;20453;-63
2023/03/23 10:57:28;;;;;;;2.27;1.10;;;;;;;18.04;57.29;99823.50;5054326;28;20447;-63
2023/03/23 10:59:58;;;;;;;2.00;1.00;;;;;;;18.04;57.32;99823.50;5027519;28;20907;-63
2023/03/23 11:02:24;;;;;;;2.33;1.40;;;;;;;18.04;57.54;99830.03;5053090;28;20441;-63
2023/03/23 11:05:07;;;;;;;2.40;1.30;;;;;;;18.05;57.27;99833.69;5057937;28;20399;-63
2023/03/23 11:07:34;;;;;;;2.40;1.43;;;;;;;18.07;57.73;99825.59;5057250;28;20198;-63
2023/03/23 11:10:25;;;;;;;2.60;1.47;;;;;;;18.07;57.29;99832.09;5043904;28;20421;-63
2023/03/23 11:12:52;;;;;;;2.37;1.40;;;;;;;18.06;56.99;99827.59;5065505;28;20458;-63
2023/03/23 11:15:27;;;;;;;2.10;1.23;;;;;;;18.07;57.13;99828.44;5080342;28;20414;-64
2023/03/23 11:18:04;;;;;;;2.20;1.10;;;;;;;18.08;57.40;99827.22;5063151;28;20491;-64
2023/03/23 11:20:35;;;;;;;2.60;1.13;;;;;;;18.08;57.22;99830.09;5042159;28;20446;-63
2023/03/23 11:23:01;;;;;;;2.30;1.13;;;;;;;18.07;57.26;99826.38;5045267;28;20434;-63
2023/03/23 11:25:27;;;;;;;2.20;1.10;;;;;;;18.09;57.28;99828.84;5064194;28;20446;-63
2023/03/23 11:27:52;;;;;;;2.60;1.47;;;;;;;18.08;57.27;99824.38;5071084;28;20167;-63
2023/03/23 11:30:25;;;;;;;2.10;1.10;;;;;;;18.07;57.30;99826.38;5074287;28;20187;-63
2023/03/23 11:32:52;;;;;;;2.00;1.17;;;;;;;18.08;57.21;99824.38;5058133;28;20365;-63
2023/03/23 11:35:26;;;;;;;1.70;1.00;;;;;;;18.07;57.18;99820.69;5063769;28;20413;-63
2023/03/23 11:37:53;;;;;;;2.40;1.20;;;;;;;18.08;57.04;99810.09;5080998;28;20938;-63
2023/03/23 11:40:27;;;;;;;2.90;1.20;;;;;;;18.08;57.08;99813.78;5076529;28;20398;-64